sensor_id;sensor_type;location;lat;lon;timestamp;temperature;humidity
70246;SHT30;57637;49.272;8.590;2023-04-22T00:01:39;11.29;86.80
70246;SHT30;57637;49.272;8.590;2023-04-22T00:04:05;11.28;86.69
70246;SHT30;57637;49.272;8.590;2023-04-22T00:06:31;11.29;86.65
70246;SHT30;57637;49.272;8.590;2023-04-22T00:08:57;11.31;86.63
70246;SHT30;57637;49.272;8.590;2023-04-22T00:11:22;11.32;86.62
70246;SHT30;57637;49.272;8.590;2023-04-22T00:13:50;11.31;86.58
70246;SHT30;57637;49.272;8.590;2023-04-22T00:16:16;11.31;86.58
70246;SHT30;57637;49.272;8.590;2023-04-22T00:18:41;11.32;86.62
70246;SHT30;57637;49.272;8.590;2023-04-22T00:21:07;11.34;86.62
70246;SHT30;57637;49.272;8.590;2023-04-22T00:23:32;11.28;86.69
70246;SHT30;57637;49.272;8.590;2023-04-22T00:25:57;11.28;86.75
70246;SHT30;57637;49.272;8.590;2023-04-22T00:28:24;11.32;86.68
70246;SHT30;57637;49.272;8.590;2023-04-22T00:30:49;11.29;86.60
70246;SHT30;57637;49.272;8.590;2023-04-22T00:33:15;11.31;86.59
70246;SHT30;57637;49.272;8.590;2023-04-22T00:35:40;11.31;86.58
70246;SHT30;57637;49.272;8.590;2023-04-22T00:38:05;11.31;86.48
70246;SHT30;57637;49.272;8.590;2023-04-22T00:40:31;11.32;86.34
70246;SHT30;57637;49.272;8.590;2023-04-22T00:42:56;11.34;86.34
70246;SHT30;57637;49.272;8.590;2023-04-22T00:45:23;11.31;86.27
70246;SHT30;57637;49.272;8.590;2023-04-22T00:47:50;11.35;86.13
70246;SHT30;57637;49.272;8.590;2023-04-22T00:50:16;11.35;86.06
70246;SHT30;57637;49.272;8.590;2023-04-22T00:52:42;11.38;85.92
70246;SHT30;57637;49.272;8.590;2023-04-22T00:55:07;11.39;85.86
70246;SHT30;57637;49.272;8.590;2023-04-22T00:57:33;11.39;85.82
70246;SHT30;57637;49.272;8.590;2023-04-22T00:59:59;11.40;85.85
70246;SHT30;57637;49.272;8.590;2023-04-22T01:02:25;11.36;85.92
70246;SHT30;57637;49.272;8.590;2023-04-22T01:04:51;11.38;86.01
70246;SHT30;57637;49.272;8.590;2023-04-22T01:07:23;11.35;86.19
70246;SHT30;57637;49.272;8.590;2023-04-22T01:09:48;11.35;86.20
70246;SHT30;57637;49.272;8.590;2023-04-22T01:12:14;11.34;86.27
70246;SHT30;57637;49.272;8.590;2023-04-22T01:14:40;11.31;86.32
70246;SHT30;57637;49.272;8.590;2023-04-22T01:17:05;11.31;86.33
70246;SHT30;57637;49.272;8.590;2023-04-22T01:19:34;11.31;86.16
70246;SHT30;57637;49.272;8.590;2023-04-22T01:21:59;11.32;86.10
70246;SHT30;57637;49.272;8.590;2023-04-22T01:24:26;11.31;86.08
70246;SHT30;57637;49.272;8.590;2023-04-22T01:26:52;11.31;86.15
70246;SHT30;57637;49.272;8.590;2023-04-22T01:29:17;11.28;86.23
70246;SHT30;57637;49.272;8.590;2023-04-22T01:31:43;11.26;86.37
70246;SHT30;57637;49.272;8.590;2023-04-22T01:34:09;11.26;86.42
70246;SHT30;57637;49.272;8.590;2023-04-22T01:36:35;11.25;86.48
70246;SHT30;57637;49.272;8.590;2023-04-22T01:39:00;11.19;86.62
70246;SHT30;57637;49.272;8.590;2023-04-22T01:41:25;11.18;86.62
70246;SHT30;57637;49.272;8.590;2023-04-22T01:43:51;11.18;86.63
70246;SHT30;57637;49.272;8.590;2023-04-22T01:46:17;11.18;86.68
70246;SHT30;57637;49.272;8.590;2023-04-22T01:48:43;11.16;86.61
70246;SHT30;57637;49.272;8.590;2023-04-22T01:51:17;11.18;86.60
70246;SHT30;57637;49.272;8.590;2023-04-22T01:53:46;11.15;86.73
70246;SHT30;57637;49.272;8.590;2023-04-22T01:56:12;11.12;86.72
70246;SHT30;57637;49.272;8.590;2023-04-22T01:58:38;11.14;86.72
70246;SHT30;57637;49.272;8.590;2023-04-22T02:01:04;11.14;86.75
70246;SHT30;57637;49.272;8.590;2023-04-22T02:03:30;11.11;86.84
70246;SHT30;57637;49.272;8.590;2023-04-22T02:05:55;11.08;86.89
70246;SHT30;57637;49.272;8.590;2023-04-22T02:08:21;11.05;86.96
70246;SHT30;57637;49.272;8.590;2023-04-22T02:10:47;11.05;86.96
70246;SHT30;57637;49.272;8.590;2023-04-22T02:13:12;11.04;87.06
70246;SHT30;57637;49.272;8.590;2023-04-22T02:15:38;11.01;87.12
70246;SHT30;57637;49.272;8.590;2023-04-22T02:18:04;10.98;87.17
70246;SHT30;57637;49.272;8.590;2023-04-22T02:20:31;10.94;87.17
70246;SHT30;57637;49.272;8.590;2023-04-22T02:22:56;10.91;87.28
70246;SHT30;57637;49.272;8.590;2023-04-22T02:25:22;10.91;87.30
70246;SHT30;57637;49.272;8.590;2023-04-22T02:27:47;10.93;87.24
70246;SHT30;57637;49.272;8.590;2023-04-22T02:30:13;10.91;87.14
70246;SHT30;57637;49.272;8.590;2023-04-22T02:32:38;10.91;87.12
70246;SHT30;57637;49.272;8.590;2023-04-22T02:35:04;10.90;87.11
70246;SHT30;57637;49.272;8.590;2023-04-22T02:37:30;10.90;87.08
70246;SHT30;57637;49.272;8.590;2023-04-22T02:39:55;10.90;87.08
70246;SHT30;57637;49.272;8.590;2023-04-22T02:42:21;10.90;87.13
70246;SHT30;57637;49.272;8.590;2023-04-22T02:44:46;10.88;87.05
70246;SHT30;57637;49.272;8.590;2023-04-22T02:47:12;10.84;87.08
70246;SHT30;57637;49.272;8.590;2023-04-22T02:49:37;10.87;87.08
70246;SHT30;57637;49.272;8.590;2023-04-22T02:52:03;10.88;86.96
70246;SHT30;57637;49.272;8.590;2023-04-22T02:54:29;10.88;86.90
70246;SHT30;57637;49.272;8.590;2023-04-22T02:56:54;10.88;86.94
70246;SHT30;57637;49.272;8.590;2023-04-22T02:59:19;10.88;86.95
70246;SHT30;57637;49.272;8.590;2023-04-22T03:01:46;10.85;86.95
70246;SHT30;57637;49.272;8.590;2023-04-22T03:04:11;10.83;87.03
70246;SHT30;57637;49.272;8.590;2023-04-22T03:06:38;10.81;87.10
70246;SHT30;57637;49.272;8.590;2023-04-22T03:09:03;10.83;87.14
70246;SHT30;57637;49.272;8.590;2023-04-22T03:11:28;10.78;87.15
70246;SHT30;57637;49.272;8.590;2023-04-22T03:13:54;10.77;87.13
70246;SHT30;57637;49.272;8.590;2023-04-22T03:16:21;10.74;87.19
70246;SHT30;57637;49.272;8.590;2023-04-22T03:18:47;10.74;87.26
70246;SHT30;57637;49.272;8.590;2023-04-22T03:21:13;10.73;87.29
70246;SHT30;57637;49.272;8.590;2023-04-22T03:23:39;10.68;87.45
70246;SHT30;57637;49.272;8.590;2023-04-22T03:26:04;10.64;87.52
70246;SHT30;57637;49.272;8.590;2023-04-22T03:28:30;10.60;87.63
70246;SHT30;57637;49.272;8.590;2023-04-22T03:30:56;10.56;87.67
70246;SHT30;57637;49.272;8.590;2023-04-22T03:33:21;10.52;87.77
70246;SHT30;57637;49.272;8.590;2023-04-22T03:35:47;10.52;87.78
70246;SHT30;57637;49.272;8.590;2023-04-22T03:38:13;10.50;87.78
70246;SHT30;57637;49.272;8.590;2023-04-22T03:40:39;10.49;87.72
70246;SHT30;57637;49.272;8.590;2023-04-22T03:43:05;10.49;87.72
70246;SHT30;57637;49.272;8.590;2023-04-22T03:45:31;10.46;87.71
70246;SHT30;57637;49.272;8.590;2023-04-22T03:47:56;10.43;87.77
70246;SHT30;57637;49.272;8.590;2023-04-22T03:50:21;10.43;87.78
70246;SHT30;57637;49.272;8.590;2023-04-22T03:52:47;10.43;87.73
70246;SHT30;57637;49.272;8.590;2023-04-22T03:55:12;10.39;87.68
70246;SHT30;57637;49.272;8.590;2023-04-22T03:57:38;10.39;87.61
70246;SHT30;57637;49.272;8.590;2023-04-22T04:00:03;10.37;87.57
70246;SHT30;57637;49.272;8.590;2023-04-22T04:02:29;10.39;87.57
70246;SHT30;57637;49.272;8.590;2023-04-22T04:04:55;10.37;87.59
70246;SHT30;57637;49.272;8.590;2023-04-22T04:07:20;10.34;87.56
70246;SHT30;57637;49.272;8.590;2023-04-22T04:09:45;10.30;87.58
70246;SHT30;57637;49.272;8.590;2023-04-22T04:12:11;10.26;87.67
70246;SHT30;57637;49.272;8.590;2023-04-22T04:14:36;10.22;87.72
70246;SHT30;57637;49.272;8.590;2023-04-22T04:17:01;10.17;87.68
70246;SHT30;57637;49.272;8.590;2023-04-22T04:19:27;10.14;87.76
70246;SHT30;57637;49.272;8.590;2023-04-22T04:21:53;10.12;87.85
70246;SHT30;57637;49.272;8.590;2023-04-22T04:24:19;10.09;87.81
70246;SHT30;57637;49.272;8.590;2023-04-22T04:26:44;10.13;87.66
70246;SHT30;57637;49.272;8.590;2023-04-22T04:29:10;10.10;87.56
70246;SHT30;57637;49.272;8.590;2023-04-22T04:31:37;10.12;87.67
70246;SHT30;57637;49.272;8.590;2023-04-22T04:34:03;10.16;87.59
70246;SHT30;57637;49.272;8.590;2023-04-22T04:36:28;10.19;87.46
70246;SHT30;57637;49.272;8.590;2023-04-22T04:38:56;10.16;87.44
70246;SHT30;57637;49.272;8.590;2023-04-22T04:41:22;10.14;87.48
70246;SHT30;57637;49.272;8.590;2023-04-22T04:43:47;10.17;87.48
70246;SHT30;57637;49.272;8.590;2023-04-22T04:46:14;10.12;87.43
70246;SHT30;57637;49.272;8.590;2023-04-22T04:48:40;10.13;87.43
70246;SHT30;57637;49.272;8.590;2023-04-22T04:51:06;9.96;87.20
70246;SHT30;57637;49.272;8.590;2023-04-22T04:53:32;9.74;87.25
70246;SHT30;57637;49.272;8.590;2023-04-22T04:55:57;9.55;87.52
70246;SHT30;57637;49.272;8.590;2023-04-22T04:58:22;9.50;87.90
70246;SHT30;57637;49.272;8.590;2023-04-22T05:00:48;9.57;88.05
70246;SHT30;57637;49.272;8.590;2023-04-22T05:03:13;9.61;87.93
70246;SHT30;57637;49.272;8.590;2023-04-22T05:05:38;9.67;87.98
70246;SHT30;57637;49.272;8.590;2023-04-22T05:08:04;9.71;88.12
70246;SHT30;57637;49.272;8.590;2023-04-22T05:10:30;9.81;88.06
70246;SHT30;57637;49.272;8.590;2023-04-22T05:12:55;9.91;87.90
70246;SHT30;57637;49.272;8.590;2023-04-22T05:15:20;9.99;87.69
70246;SHT30;57637;49.272;8.590;2023-04-22T05:17:46;10.08;87.50
70246;SHT30;57637;49.272;8.590;2023-04-22T05:20:11;10.22;87.45
70246;SHT30;57637;49.272;8.590;2023-04-22T05:22:37;10.34;87.23
70246;SHT30;57637;49.272;8.590;2023-04-22T05:25:03;10.44;86.99
70246;SHT30;57637;49.272;8.590;2023-04-22T05:27:28;10.53;86.87
70246;SHT30;57637;49.272;8.590;2023-04-22T05:29:54;10.64;86.77
70246;SHT30;57637;49.272;8.590;2023-04-22T05:32:20;10.70;86.53
70246;SHT30;57637;49.272;8.590;2023-04-22T05:34:45;10.68;86.12
70246;SHT30;57637;49.272;8.590;2023-04-22T05:37:11;10.67;86.11
70246;SHT30;57637;49.272;8.590;2023-04-22T05:39:36;10.83;86.11
70246;SHT30;57637;49.272;8.590;2023-04-22T05:42:01;10.85;85.99
70246;SHT30;57637;49.272;8.590;2023-04-22T05:44:27;10.97;85.67
70246;SHT30;57637;49.272;8.590;2023-04-22T05:46:52;11.05;85.49
70246;SHT30;57637;49.272;8.590;2023-04-22T05:49:18;11.08;85.30
70246;SHT30;57637;49.272;8.590;2023-04-22T05:51:43;11.14;85.42
70246;SHT30;57637;49.272;8.590;2023-04-22T05:54:09;11.16;85.05
70246;SHT30;57637;49.272;8.590;2023-04-22T05:56:35;11.34;84.93
70246;SHT30;57637;49.272;8.590;2023-04-22T05:59:00;11.55;84.53
70246;SHT30;57637;49.272;8.590;2023-04-22T06:01:26;11.93;83.67
70246;SHT30;57637;49.272;8.590;2023-04-22T06:03:51;12.57;82.60
70246;SHT30;57637;49.272;8.590;2023-04-22T06:06:16;12.95;80.37
70246;SHT30;57637;49.272;8.590;2023-04-22T06:08:42;13.08;80.28
70246;SHT30;57637;49.272;8.590;2023-04-22T06:11:07;13.63;79.84
70246;SHT30;57637;49.272;8.590;2023-04-22T06:13:32;14.15;78.26
70246;SHT30;57637;49.272;8.590;2023-04-22T06:15:58;14.36;77.24
70246;SHT30;57637;49.272;8.590;2023-04-22T06:18:24;14.64;77.11
70246;SHT30;57637;49.272;8.590;2023-04-22T06:20:50;14.68;76.13
70246;SHT30;57637;49.272;8.590;2023-04-22T06:23:16;14.64;75.64
70246;SHT30;57637;49.272;8.590;2023-04-22T06:25:41;15.09;74.35
70246;SHT30;57637;49.272;8.590;2023-04-22T06:28:07;15.58;73.15
70246;SHT30;57637;49.272;8.590;2023-04-22T06:30:32;15.57;72.29
70246;SHT30;57637;49.272;8.590;2023-04-22T06:32:58;15.40;71.98
70246;SHT30;57637;49.272;8.590;2023-04-22T06:35:24;15.60;72.28
70246;SHT30;57637;49.272;8.590;2023-04-22T06:37:50;14.96;74.50
70246;SHT30;57637;49.272;8.590;2023-04-22T06:40:15;14.71;74.71
70246;SHT30;57637;49.272;8.590;2023-04-22T06:42:40;14.18;75.52
70246;SHT30;57637;49.272;8.590;2023-04-22T06:45:06;14.59;74.97
70246;SHT30;57637;49.272;8.590;2023-04-22T06:47:37;14.28;75.82
70246;SHT30;57637;49.272;8.590;2023-04-22T06:50:04;14.05;77.12
70246;SHT30;57637;49.272;8.590;2023-04-22T06:52:31;14.35;76.56
70246;SHT30;57637;49.272;8.590;2023-04-22T06:54:56;14.65;75.86
70246;SHT30;57637;49.272;8.590;2023-04-22T06:57:21;15.07;75.96
70246;SHT30;57637;49.272;8.590;2023-04-22T06:59:47;15.67;73.29
70246;SHT30;57637;49.272;8.590;2023-04-22T07:02:12;16.09;71.81
70246;SHT30;57637;49.272;8.590;2023-04-22T07:04:38;14.89;74.99
70246;SHT30;57637;49.272;8.590;2023-04-22T07:07:03;15.24;74.72
70246;SHT30;57637;49.272;8.590;2023-04-22T07:09:28;14.92;74.45
70246;SHT30;57637;49.272;8.590;2023-04-22T07:11:54;15.03;75.51
70246;SHT30;57637;49.272;8.590;2023-04-22T07:14:19;15.62;73.30
70246;SHT30;57637;49.272;8.590;2023-04-22T07:16:45;16.46;71.55
70246;SHT30;57637;49.272;8.590;2023-04-22T07:19:10;16.86;69.67
70246;SHT30;57637;49.272;8.590;2023-04-22T07:21:36;16.09;71.73
70246;SHT30;57637;49.272;8.590;2023-04-22T07:24:01;16.36;71.02
70246;SHT30;57637;49.272;8.590;2023-04-22T07:26:27;16.41;71.00
70246;SHT30;57637;49.272;8.590;2023-04-22T07:28:52;16.91;69.79
70246;SHT30;57637;49.272;8.590;2023-04-22T07:31:18;16.53;70.85
70246;SHT30;57637;49.272;8.590;2023-04-22T07:33:43;17.49;68.43
70246;SHT30;57637;49.272;8.590;2023-04-22T07:36:08;17.02;68.20
70246;SHT30;57637;49.272;8.590;2023-04-22T07:38:34;17.55;67.23
70246;SHT30;57637;49.272;8.590;2023-04-22T07:41:00;17.86;65.31
70246;SHT30;57637;49.272;8.590;2023-04-22T07:43:25;17.81;64.79
70246;SHT30;57637;49.272;8.590;2023-04-22T07:45:51;16.94;66.59
70246;SHT30;57637;49.272;8.590;2023-04-22T07:48:17;17.13;67.03
70246;SHT30;57637;49.272;8.590;2023-04-22T07:50:42;17.52;65.80
70246;SHT30;57637;49.272;8.590;2023-04-22T07:53:08;17.56;66.09
70246;SHT30;57637;49.272;8.590;2023-04-22T07:55:34;17.65;65.96
70246;SHT30;57637;49.272;8.590;2023-04-22T07:58:00;17.92;63.63
70246;SHT30;57637;49.272;8.590;2023-04-22T08:00:30;17.97;63.71
70246;SHT30;57637;49.272;8.590;2023-04-22T08:02:56;17.89;63.95
70246;SHT30;57637;49.272;8.590;2023-04-22T08:05:21;18.33;63.33
70246;SHT30;57637;49.272;8.590;2023-04-22T08:07:46;18.13;63.33
70246;SHT30;57637;49.272;8.590;2023-04-22T08:10:12;18.16;65.31
70246;SHT30;57637;49.272;8.590;2023-04-22T08:12:37;18.29;64.70
70246;SHT30;57637;49.272;8.590;2023-04-22T08:15:02;18.16;64.09
70246;SHT30;57637;49.272;8.590;2023-04-22T08:17:28;18.29;63.70
70246;SHT30;57637;49.272;8.590;2023-04-22T08:19:53;18.70;63.22
70246;SHT30;57637;49.272;8.590;2023-04-22T08:22:19;18.23;62.84
70246;SHT30;57637;49.272;8.590;2023-04-22T08:24:44;18.51;63.07
70246;SHT30;57637;49.272;8.590;2023-04-22T08:27:09;18.75;61.61
70246;SHT30;57637;49.272;8.590;2023-04-22T08:29:38;19.11;60.76
70246;SHT30;57637;49.272;8.590;2023-04-22T08:32:03;18.97;60.90
70246;SHT30;57637;49.272;8.590;2023-04-22T08:34:29;19.22;60.21
70246;SHT30;57637;49.272;8.590;2023-04-22T08:36:54;19.67;59.63
70246;SHT30;57637;49.272;8.590;2023-04-22T08:39:20;19.33;60.01
70246;SHT30;57637;49.272;8.590;2023-04-22T08:41:45;18.87;61.51
70246;SHT30;57637;49.272;8.590;2023-04-22T08:44:13;19.42;59.73
70246;SHT30;57637;49.272;8.590;2023-04-22T08:46:39;19.86;58.45
70246;SHT30;57637;49.272;8.590;2023-04-22T08:49:10;19.48;59.82
70246;SHT30;57637;49.272;8.590;2023-04-22T08:51:38;19.72;59.62
70246;SHT30;57637;49.272;8.590;2023-04-22T08:54:05;20.55;56.66
70246;SHT30;57637;49.272;8.590;2023-04-22T08:56:30;19.94;57.68
70246;SHT30;57637;49.272;8.590;2023-04-22T08:58:56;20.20;57.45
70246;SHT30;57637;49.272;8.590;2023-04-22T09:01:22;18.50;61.06
70246;SHT30;57637;49.272;8.590;2023-04-22T09:03:48;18.67;61.17
70246;SHT30;57637;49.272;8.590;2023-04-22T09:06:14;18.39;60.78
70246;SHT30;57637;49.272;8.590;2023-04-22T09:08:43;19.66;59.53
70246;SHT30;57637;49.272;8.590;2023-04-22T09:11:09;18.94;57.67
70246;SHT30;57637;49.272;8.590;2023-04-22T09:13:35;18.56;60.01
70246;SHT30;57637;49.272;8.590;2023-04-22T09:16:01;18.68;60.44
70246;SHT30;57637;49.272;8.590;2023-04-22T09:18:27;18.75;59.91
70246;SHT30;57637;49.272;8.590;2023-04-22T09:20:53;19.05;58.62
70246;SHT30;57637;49.272;8.590;2023-04-22T09:23:20;18.91;58.28
70246;SHT30;57637;49.272;8.590;2023-04-22T09:25:46;19.65;57.48
70246;SHT30;57637;49.272;8.590;2023-04-22T09:28:15;19.67;56.97
70246;SHT30;57637;49.272;8.590;2023-04-22T09:30:42;20.52;55.93
70246;SHT30;57637;49.272;8.590;2023-04-22T09:33:09;20.82;54.97
70246;SHT30;57637;49.272;8.590;2023-04-22T09:35:40;20.75;53.09
70246;SHT30;57637;49.272;8.590;2023-04-22T09:38:07;20.16;53.43
70246;SHT30;57637;49.272;8.590;2023-04-22T09:40:39;20.44;54.23
70246;SHT30;57637;49.272;8.590;2023-04-22T09:43:07;20.35;55.01
70246;SHT30;57637;49.272;8.590;2023-04-22T09:45:40;19.77;55.47
70246;SHT30;57637;49.272;8.590;2023-04-22T09:48:07;20.27;55.71
70246;SHT30;57637;49.272;8.590;2023-04-22T09:50:43;20.24;54.50
70246;SHT30;57637;49.272;8.590;2023-04-22T09:53:12;21.19;53.46
70246;SHT30;57637;49.272;8.590;2023-04-22T09:55:41;21.06;53.95
70246;SHT30;57637;49.272;8.590;2023-04-22T09:58:10;21.22;53.50
70246;SHT30;57637;49.272;8.590;2023-04-22T10:00:41;21.13;50.99
70246;SHT30;57637;49.272;8.590;2023-04-22T10:03:08;21.54;52.41
70246;SHT30;57637;49.272;8.590;2023-04-22T10:05:34;21.63;51.13
70246;SHT30;57637;49.272;8.590;2023-04-22T10:08:05;21.71;51.48
70246;SHT30;57637;49.272;8.590;2023-04-22T10:10:32;21.86;51.29
70246;SHT30;57637;49.272;8.590;2023-04-22T10:12:59;21.59;52.89
70246;SHT30;57637;49.272;8.590;2023-04-22T10:15:25;21.51;50.28
70246;SHT30;57637;49.272;8.590;2023-04-22T10:17:55;21.90;50.16
70246;SHT30;57637;49.272;8.590;2023-04-22T10:20:21;22.02;50.07
70246;SHT30;57637;49.272;8.590;2023-04-22T10:22:49;22.12;50.54
70246;SHT30;57637;49.272;8.590;2023-04-22T10:25:20;21.33;51.70
70246;SHT30;57637;49.272;8.590;2023-04-22T10:30:30;22.38;50.36
70246;SHT30;57637;49.272;8.590;2023-04-22T10:33:42;22.77;49.97
70246;SHT30;57637;49.272;8.590;2023-04-22T10:38:33;22.96;48.42
70246;SHT30;57637;49.272;8.590;2023-04-22T10:41:02;22.72;49.32
70246;SHT30;57637;49.272;8.590;2023-04-22T10:49:08;23.81;45.78
70246;SHT30;57637;49.272;8.590;2023-04-22T10:51:47;24.06;45.09
70246;SHT30;57637;49.272;8.590;2023-04-22T10:57:03;23.97;42.62
70246;SHT30;57637;49.272;8.590;2023-04-22T10:59:46;24.04;42.96
70246;SHT30;57637;49.272;8.590;2023-04-22T11:02:15;24.24;43.64
70246;SHT30;57637;49.272;8.590;2023-04-22T11:04:41;24.32;43.66
70246;SHT30;57637;49.272;8.590;2023-04-22T11:09:50;24.29;41.35
70246;SHT30;57637;49.272;8.590;2023-04-22T11:15:07;24.16;40.62
70246;SHT30;57637;49.272;8.590;2023-04-22T11:17:34;24.26;40.24
70246;SHT30;57637;49.272;8.590;2023-04-22T11:20:00;24.14;40.66
70246;SHT30;57637;49.272;8.590;2023-04-22T11:22:26;24.28;41.03
70246;SHT30;57637;49.272;8.590;2023-04-22T11:24:55;24.36;40.69
70246;SHT30;57637;49.272;8.590;2023-04-22T11:27:21;24.21;40.11
70246;SHT30;57637;49.272;8.590;2023-04-22T11:30:03;24.40;40.39
70246;SHT30;57637;49.272;8.590;2023-04-22T11:32:34;24.33;40.55
70246;SHT30;57637;49.272;8.590;2023-04-22T11:35:08;24.37;40.28
70246;SHT30;57637;49.272;8.590;2023-04-22T11:38:17;24.59;39.89
70246;SHT30;57637;49.272;8.590;2023-04-22T11:40:26;24.59;39.00
70246;SHT30;57637;49.272;8.590;2023-04-22T11:42:53;24.65;37.96
70246;SHT30;57637;49.272;8.590;2023-04-22T11:45:19;24.57;39.17
70246;SHT30;57637;49.272;8.590;2023-04-22T11:47:45;24.62;38.89
70246;SHT30;57637;49.272;8.590;2023-04-22T11:50:11;24.67;38.75
70246;SHT30;57637;49.272;8.590;2023-04-22T11:52:48;24.84;38.77
70246;SHT30;57637;49.272;8.590;2023-04-22T11:55:14;24.69;38.88
70246;SHT30;57637;49.272;8.590;2023-04-22T11:57:41;24.97;38.83
70246;SHT30;57637;49.272;8.590;2023-04-22T12:00:10;24.96;38.67
70246;SHT30;57637;49.272;8.590;2023-04-22T12:02:38;25.07;37.87
70246;SHT30;57637;49.272;8.590;2023-04-22T12:05:07;25.20;38.33
70246;SHT30;57637;49.272;8.590;2023-04-22T12:07:34;25.02;38.55
70246;SHT30;57637;49.272;8.590;2023-04-22T12:10:00;24.93;37.29
70246;SHT30;57637;49.272;8.590;2023-04-22T12:12:27;24.80;37.32
70246;SHT30;57637;49.272;8.590;2023-04-22T12:14:53;24.75;36.71
70246;SHT30;57637;49.272;8.590;2023-04-22T12:17:24;24.60;37.12
70246;SHT30;57637;49.272;8.590;2023-04-22T12:19:53;24.42;38.15
70246;SHT30;57637;49.272;8.590;2023-04-22T12:22:23;24.30;37.55
70246;SHT30;57637;49.272;8.590;2023-04-22T12:24:49;24.09;38.63
70246;SHT30;57637;49.272;8.590;2023-04-22T12:27:15;23.89;39.11
70246;SHT30;57637;49.272;8.590;2023-04-22T12:29:41;23.79;40.14
70246;SHT30;57637;49.272;8.590;2023-04-22T12:32:15;24.01;41.44
70246;SHT30;57637;49.272;8.590;2023-04-22T12:34:40;24.12;39.66
70246;SHT30;57637;49.272;8.590;2023-04-22T12:37:06;23.86;40.47
70246;SHT30;57637;49.272;8.590;2023-04-22T12:39:31;23.93;40.17
70246;SHT30;57637;49.272;8.590;2023-04-22T12:41:56;23.79;40.89
70246;SHT30;57637;49.272;8.590;2023-04-22T12:44:22;23.89;41.21
70246;SHT30;57637;49.272;8.590;2023-04-22T12:46:47;23.98;41.46
70246;SHT30;57637;49.272;8.590;2023-04-22T12:49:13;23.97;41.59
70246;SHT30;57637;49.272;8.590;2023-04-22T12:51:38;24.05;41.54
70246;SHT30;57637;49.272;8.590;2023-04-22T12:54:04;24.06;41.46
70246;SHT30;57637;49.272;8.590;2023-04-22T12:56:29;23.94;41.62
70246;SHT30;57637;49.272;8.590;2023-04-22T12:58:55;23.61;42.12
70246;SHT30;57637;49.272;8.590;2023-04-22T13:01:20;23.43;42.18
70246;SHT30;57637;49.272;8.590;2023-04-22T13:03:45;23.23;43.32
70246;SHT30;57637;49.272;8.590;2023-04-22T13:06:11;23.00;44.06
70246;SHT30;57637;49.272;8.590;2023-04-22T13:08:37;22.86;43.28
70246;SHT30;57637;49.272;8.590;2023-04-22T13:11:02;22.63;43.45
70246;SHT30;57637;49.272;8.590;2023-04-22T13:13:28;22.49;43.78
70246;SHT30;57637;49.272;8.590;2023-04-22T13:15:53;22.48;44.18
70246;SHT30;57637;49.272;8.590;2023-04-22T13:18:19;22.38;43.86
70246;SHT30;57637;49.272;8.590;2023-04-22T13:20:44;22.35;44.49
70246;SHT30;57637;49.272;8.590;2023-04-22T13:23:10;22.20;44.24
70246;SHT30;57637;49.272;8.590;2023-04-22T13:25:37;22.14;44.95
70246;SHT30;57637;49.272;8.590;2023-04-22T13:28:02;22.14;43.77
70246;SHT30;57637;49.272;8.590;2023-04-22T13:30:28;21.98;44.91
70246;SHT30;57637;49.272;8.590;2023-04-22T13:32:53;21.83;44.49
70246;SHT30;57637;49.272;8.590;2023-04-22T13:35:18;21.77;44.56
70246;SHT30;57637;49.272;8.590;2023-04-22T13:37:44;21.66;44.20
70246;SHT30;57637;49.272;8.590;2023-04-22T13:40:11;21.63;45.09
70246;SHT30;57637;49.272;8.590;2023-04-22T13:42:36;21.66;45.30
70246;SHT30;57637;49.272;8.590;2023-04-22T13:45:01;21.80;44.17
70246;SHT30;57637;49.272;8.590;2023-04-22T13:47:27;21.86;43.62
70246;SHT30;57637;49.272;8.590;2023-04-22T13:49:52;21.64;43.63
70246;SHT30;57637;49.272;8.590;2023-04-22T13:52:18;21.67;44.38
70246;SHT30;57637;49.272;8.590;2023-04-22T13:54:43;21.64;44.44
70246;SHT30;57637;49.272;8.590;2023-04-22T13:57:08;21.54;44.24
70246;SHT30;57637;49.272;8.590;2023-04-22T13:59:34;21.47;44.57
70246;SHT30;57637;49.272;8.590;2023-04-22T14:02:00;21.51;44.02
70246;SHT30;57637;49.272;8.590;2023-04-22T14:04:25;21.56;44.67
70246;SHT30;57637;49.272;8.590;2023-04-22T14:06:51;21.63;44.95
70246;SHT30;57637;49.272;8.590;2023-04-22T14:09:16;21.78;44.23
70246;SHT30;57637;49.272;8.590;2023-04-22T14:11:42;21.53;43.36
70246;SHT30;57637;49.272;8.590;2023-04-22T14:14:07;21.67;43.08
70246;SHT30;57637;49.272;8.590;2023-04-22T14:16:32;21.83;43.99
70246;SHT30;57637;49.272;8.590;2023-04-22T14:18:58;21.61;44.59
70246;SHT30;57637;49.272;8.590;2023-04-22T14:21:23;21.60;44.27
70246;SHT30;57637;49.272;8.590;2023-04-22T14:23:49;21.33;44.67
70246;SHT30;57637;49.272;8.590;2023-04-22T14:26:14;21.49;45.05
70246;SHT30;57637;49.272;8.590;2023-04-22T14:28:40;21.49;44.99
70246;SHT30;57637;49.272;8.590;2023-04-22T14:31:06;21.46;45.54
70246;SHT30;57637;49.272;8.590;2023-04-22T14:33:32;21.53;44.96
70246;SHT30;57637;49.272;8.590;2023-04-22T14:35:58;21.60;44.14
70246;SHT30;57637;49.272;8.590;2023-04-22T14:38:23;21.76;43.98
70246;SHT30;57637;49.272;8.590;2023-04-22T14:40:49;21.76;43.24
70246;SHT30;57637;49.272;8.590;2023-04-22T14:43:15;21.66;44.18
70246;SHT30;57637;49.272;8.590;2023-04-22T14:45:41;21.47;44.62
70246;SHT30;57637;49.272;8.590;2023-04-22T14:48:07;21.66;43.38
70246;SHT30;57637;49.272;8.590;2023-04-22T14:50:32;21.94;43.37
70246;SHT30;57637;49.272;8.590;2023-04-22T14:52:58;21.86;43.86
70246;SHT30;57637;49.272;8.590;2023-04-22T14:55:24;21.81;44.75
70246;SHT30;57637;49.272;8.590;2023-04-22T14:57:51;21.51;43.97
70246;SHT30;57637;49.272;8.590;2023-04-22T15:00:17;21.42;44.06
70246;SHT30;57637;49.272;8.590;2023-04-22T15:02:43;21.36;44.50
70246;SHT30;57637;49.272;8.590;2023-04-22T15:05:08;21.30;45.30
70246;SHT30;57637;49.272;8.590;2023-04-22T15:07:34;21.39;45.02
70246;SHT30;57637;49.272;8.590;2023-04-22T15:09:59;21.46;45.09
70246;SHT30;57637;49.272;8.590;2023-04-22T15:12:25;21.32;45.07
70246;SHT30;57637;49.272;8.590;2023-04-22T15:14:50;21.30;46.44
70246;SHT30;57637;49.272;8.590;2023-04-22T15:17:16;21.39;46.82
70246;SHT30;57637;49.272;8.590;2023-04-22T15:19:42;21.27;46.51
70246;SHT30;57637;49.272;8.590;2023-04-22T15:22:07;21.49;45.66
70246;SHT30;57637;49.272;8.590;2023-04-22T15:24:32;21.47;45.33
70246;SHT30;57637;49.272;8.590;2023-04-22T15:26:58;21.49;45.32
70246;SHT30;57637;49.272;8.590;2023-04-22T15:29:24;21.42;44.06
70246;SHT30;57637;49.272;8.590;2023-04-22T15:31:51;21.18;46.18
70246;SHT30;57637;49.272;8.590;2023-04-22T15:34:17;21.27;45.64
70246;SHT30;57637;49.272;8.590;2023-04-22T15:36:42;21.29;45.27
70246;SHT30;57637;49.272;8.590;2023-04-22T15:39:08;21.05;46.65
70246;SHT30;57637;49.272;8.590;2023-04-22T15:41:35;20.89;47.19
70246;SHT30;57637;49.272;8.590;2023-04-22T15:44:00;20.89;46.77
70246;SHT30;57637;49.272;8.590;2023-04-22T15:46:27;20.76;45.92